Honey Creek, WI

11:21 PM CDT on July 06, 2015 (GMT -0500)
Rochester, WI | | Change Station
CLOSE
Current Station
Personal Weather Station
Location: Rochester, WI
Elevation: 780 ft
Nearby Weather Stations

Elev 780 ft 42.74 °N, 88.24 °W | Updated 10 seconds ago

Partly Cloudy
Partly Cloudy
72.1 °F
Feels Like 72.1 °F
N
1.6
Wind Variable Wind from SE
Gusts 4.5 mph

Today
High -- | Low -- °F
--% Chance of Precip.
Yesterday
High -- | Low -- °F
Precip. -- in
5:21 AM 8:34 PM
Waning Gibbous, 69% visible
Pressure 29.85 in
Visibility 10.0 miles
Clouds Scattered Clouds 1100 ft
Mostly Cloudy 3800 ft
Overcast 4500 ft
Dew Point 69 °F
Humidity 89%
Rainfall 0.22 in
Snow Depth Not available.
UV 0 out of 12
Pollen 3.30 out of 12
Air Quality Not available.
Flu Activity Not available.
METAR KBUU 070415Z AUTO 21006KT 10SM -RA SCT011 BKN038 OVC045 21/20 A2985 RMK AO2 T02110200

More Conditions Fewer Conditions

Pressure 29.85 in
Visibility 10.0 miles
Clouds Scattered Clouds 1100 ft
Mostly Cloudy 3800 ft
Overcast 4500 ft
Dew Point 69 °F
Humidity 89%
Rainfall 0.22 in
Snow Depth Not available.
UV 0 out of 12
Pollen 3.30 out of 12
Air Quality Not available.
Flu Activity Not available.
METAR KBUU 070415Z AUTO 21006KT 10SM -RA SCT011 BKN038 OVC045 21/20 A2985 RMK AO2 T02110200

More Conditions Fewer Conditions

10-Day Weather Forecast

×

Almanac

Astronomy

Jul. 06, 2015 Rise Set
Actual Time
Civil Twilight
Nautical Twilight
Astronomical Twilight
Moon
Length of Visible Light
Length of Day
Tomorrow will be .
, % of the Moon is Illuminated

Today's Extremes

State Highs State Lows

Community

WunderPhotos

Upload Photos

1,835,716 photos uploaded!

WunderBlogs® & News

Nearby

Air Quality

  Air Quality AQ Index Pollutant
Not available.

Snow Depth

Station Depth Elevation

Earthquake Activity

City Distance Mag. Time & Date
Minimum magnitude displayed is 2.5.

Coastal Water Temperatures

Place Temperature

Stations

Nearby Weather Stations

Station Location Temp. Windchill Dew Point Humidity Wind Precip. Elev Updated Type